createdAt,value
2018-09-10T00:02:11.135Z,82.50
2018-09-10T00:04:44.704Z,82.40
2018-09-10T00:07:17.648Z,82.30
2018-09-10T00:09:50.928Z,82.30
2018-09-10T00:12:24.219Z,82.20
2018-09-10T00:14:57.129Z,82.30
2018-09-10T00:17:30.209Z,82.30
2018-09-10T00:20:03.504Z,82.10
2018-09-10T00:22:36.449Z,82.00
2018-09-10T00:25:10.442Z,82.00
2018-09-10T00:27:44.007Z,82.00
2018-09-10T00:30:16.991Z,81.60
2018-09-10T00:32:49.997Z,81.60
2018-09-10T00:35:22.933Z,81.40
2018-09-10T00:37:55.879Z,81.70
2018-09-10T00:40:28.757Z,81.70
2018-09-10T00:43:02.188Z,81.90
2018-09-10T00:45:35.436Z,82.10
2018-09-10T00:48:08.326Z,82.00
2018-09-10T00:50:41.674Z,81.90
2018-09-10T00:53:14.614Z,82.20
2018-09-10T00:55:47.551Z,82.00
2018-09-10T00:58:20.673Z,81.90
2018-09-10T01:00:53.905Z,81.90
2018-09-10T01:03:27.092Z,81.90
2018-09-10T01:06:00.405Z,82.10
2018-09-10T01:08:33.516Z,83.10
2018-09-10T01:11:06.541Z,82.50
2018-09-10T01:13:39.484Z,82.60
2018-09-10T01:16:12.482Z,82.70
2018-09-10T01:18:45.674Z,82.90
2018-09-10T01:21:18.948Z,83.00
2018-09-10T01:23:52.510Z,83.00
2018-09-10T01:26:26.050Z,82.80
2018-09-10T01:28:58.925Z,82.70
2018-09-10T01:31:33.341Z,83.00
2018-09-10T01:34:10.880Z,82.60
2018-09-10T01:36:44.379Z,82.70
2018-09-10T01:39:17.618Z,82.50
2018-09-10T01:41:50.826Z,82.70
2018-09-10T01:44:24.626Z,82.60
2018-09-10T01:46:59.462Z,82.40
2018-09-10T01:49:32.884Z,82.40
2018-09-10T01:52:05.860Z,82.70
2018-09-10T01:54:38.757Z,82.60
2018-09-10T01:57:11.957Z,82.40
2018-09-10T01:59:45.745Z,82.60
2018-09-10T02:02:18.592Z,82.30
2018-09-10T02:04:52.128Z,82.40
2018-09-10T02:07:25.568Z,82.40
2018-09-10T02:09:58.356Z,82.10
2018-09-10T02:12:31.193Z,82.10
2018-09-10T02:15:05.752Z,82.30
2018-09-10T02:17:38.920Z,82.40
2018-09-10T02:20:11.800Z,82.40
2018-09-10T02:22:45.041Z,82.20
2018-09-10T02:25:18.334Z,82.50
2018-09-10T02:27:51.244Z,82.50
2018-09-10T02:30:24.694Z,82.50
2018-09-10T02:32:58.015Z,82.60
2018-09-10T02:35:31.078Z,82.60
2018-09-10T02:38:04.183Z,82.50
2018-09-10T02:40:37.947Z,82.50
2018-09-10T02:43:11.396Z,82.50
2018-09-10T02:45:45.303Z,82.60
2018-09-10T02:48:18.860Z,82.80
2018-09-10T02:50:51.946Z,83.00
2018-09-10T02:53:24.823Z,82.90
2018-09-10T02:55:58.662Z,83.10
2018-09-10T02:58:31.612Z,83.30
2018-09-10T03:01:05.161Z,83.40
2018-09-10T03:03:38.696Z,83.70
2018-09-10T03:06:12.687Z,83.70
2018-09-10T03:08:46.150Z,83.80
2018-09-10T03:11:20.015Z,83.90
2018-09-10T03:13:52.930Z,84.00
2018-09-10T03:16:25.881Z,84.30
2018-09-10T03:18:58.865Z,84.20
2018-09-10T03:21:32.214Z,84.00
2018-09-10T03:24:05.856Z,84.20
2018-09-10T03:26:39.321Z,84.10
2018-09-10T03:29:14.575Z,84.20
2018-09-10T03:31:48.513Z,84.10
2018-09-10T03:34:21.789Z,84.50
2018-09-10T03:36:54.642Z,83.50
2018-09-10T03:39:27.892Z,83.60
2018-09-10T03:42:00.986Z,83.80
2018-09-10T03:44:33.966Z,83.70
2018-09-10T03:47:07.309Z,83.90
2018-09-10T03:49:40.331Z,84.00
2018-09-10T03:52:14.230Z,83.90
2018-09-10T03:54:47.269Z,84.10
2018-09-10T03:57:22.502Z,84.10
2018-09-10T03:59:55.539Z,84.20
2018-09-10T04:02:29.730Z,84.30
2018-09-10T04:05:02.757Z,84.40
2018-09-10T04:07:36.042Z,84.10
2018-09-10T04:10:09.379Z,84.10
2018-09-10T04:12:42.561Z,84.20
2018-09-10T04:15:15.863Z,84.10
2018-09-10T04:17:49.275Z,84.10
2018-09-10T04:20:22.135Z,84.50
2018-09-10T04:22:55.033Z,84.20
2018-09-10T04:25:28.109Z,85.20
2018-09-10T04:28:01.599Z,84.50
2018-09-10T04:30:33.906Z,84.50
2018-09-10T04:33:05.992Z,84.60
2018-09-10T04:35:37.589Z,84.50
2018-09-10T04:38:10.050Z,84.70
2018-09-10T04:40:42.450Z,84.50
2018-09-10T04:43:14.494Z,84.90
2018-09-10T04:45:46.363Z,84.90
2018-09-10T04:48:18.265Z,84.50
2018-09-10T04:50:50.179Z,84.50
2018-09-10T04:53:21.671Z,84.10
2018-09-10T04:55:54.311Z,84.30
2018-09-10T04:58:25.849Z,84.80
2018-09-10T05:00:57.586Z,85.20
2018-09-10T05:03:29.876Z,85.20
2018-09-10T05:06:01.902Z,85.30
2018-09-10T05:08:34.047Z,85.20
2018-09-10T05:11:06.591Z,85.50
2018-09-10T05:13:38.559Z,85.20
2018-09-10T05:16:10.275Z,85.10
2018-09-10T05:18:41.979Z,85.30
2018-09-10T05:21:14.610Z,85.40
2018-09-10T05:23:47.764Z,85.40
2018-09-10T05:26:19.297Z,85.40
2018-09-10T05:28:51.620Z,85.40
2018-09-10T05:31:24.166Z,85.40
2018-09-10T05:33:56.378Z,85.20
2018-09-10T05:36:28.447Z,85.40
2018-09-10T05:39:00.171Z,85.50
2018-09-10T05:41:32.290Z,85.50
2018-09-10T05:44:03.850Z,85.70
2018-09-10T05:46:35.427Z,85.60
2018-09-10T05:49:07.014Z,85.50
2018-09-10T05:51:39.026Z,85.60
2018-09-10T05:54:11.003Z,85.40
2018-09-10T05:56:43.472Z,85.40
2018-09-10T05:59:15.057Z,85.80
2018-09-10T06:01:47.281Z,85.50
2018-09-10T06:04:19.246Z,85.80
2018-09-10T06:06:51.595Z,85.90
2018-09-10T06:09:23.468Z,86.20
2018-09-10T06:11:55.078Z,86.50
2018-09-10T06:14:27.528Z,86.50
2018-09-10T06:16:59.181Z,86.10
2018-09-10T06:19:30.734Z,86.40
2018-09-10T06:22:02.669Z,86.30
2018-09-10T06:24:34.596Z,86.30
2018-09-10T06:27:06.745Z,86.30
2018-09-10T06:29:38.819Z,85.70
2018-09-10T06:32:10.887Z,85.50
2018-09-10T06:34:42.748Z,86.00
2018-09-10T06:37:14.482Z,86.40
2018-09-10T06:39:46.539Z,86.30
2018-09-10T06:42:18.573Z,86.80
2018-09-10T06:44:50.591Z,86.50
2018-09-10T06:47:24.135Z,86.60
2018-09-10T06:49:56.638Z,87.40
2018-09-10T06:52:32.901Z,86.60
2018-09-10T06:55:10.824Z,86.10
2018-09-10T06:57:42.542Z,86.30
2018-09-10T07:00:20.541Z,86.30
2018-09-10T07:02:58.349Z,87.50
2018-09-10T07:05:30.346Z,87.60
2018-09-10T07:08:14.524Z,89.60
2018-09-10T07:10:59.834Z,90.50
2018-09-10T07:13:31.805Z,90.70
2018-09-10T07:16:03.334Z,90.40
2018-09-10T07:18:35.272Z,91.50
2018-09-10T07:21:06.879Z,91.10
2018-09-10T07:23:40.032Z,91.50
2018-09-10T07:26:12.072Z,91.60
2018-09-10T07:28:43.972Z,91.60
2018-09-10T07:31:15.549Z,92.10
2018-09-10T07:33:47.536Z,92.10
2018-09-10T07:36:20.176Z,92.20
2018-09-10T07:38:52.419Z,92.20
2018-09-10T07:41:24.066Z,92.10
2018-09-10T07:43:55.727Z,91.60
2018-09-10T07:46:27.617Z,91.20
2018-09-10T07:48:59.278Z,90.90
2018-09-10T07:51:31.255Z,90.70
2018-09-10T07:54:03.571Z,90.60
2018-09-10T07:56:35.077Z,90.70
2018-09-10T07:59:07.051Z,90.90
2018-09-10T08:01:38.646Z,90.30
2018-09-10T08:04:10.908Z,90.30
2018-09-10T08:06:42.823Z,90.20
2018-09-10T08:09:14.866Z,90.10
2018-09-10T08:11:47.339Z,89.00
2018-09-10T08:14:19.756Z,89.40
2018-09-10T08:16:51.413Z,90.50
2018-09-10T08:19:23.122Z,90.40
2018-09-10T08:21:55.167Z,90.20
2018-09-10T08:24:27.522Z,89.90
2018-09-10T08:26:59.589Z,88.70
2018-09-10T08:29:31.927Z,87.20
2018-09-10T08:32:03.822Z,88.10
2018-09-10T08:34:36.151Z,85.30
2018-09-10T08:37:07.955Z,84.60
2018-09-10T08:39:39.903Z,83.30
2018-09-10T08:42:11.927Z,82.60
2018-09-10T08:44:43.702Z,82.00
2018-09-10T08:47:15.667Z,81.50
2018-09-10T08:49:48.174Z,80.60
2018-09-10T08:52:22.057Z,79.20
2018-09-10T08:54:54.895Z,78.10
2018-09-10T08:57:26.557Z,78.80
2018-09-10T08:59:58.819Z,78.70
2018-09-10T09:02:31.727Z,78.50
2018-09-10T09:05:03.762Z,78.40
2018-09-10T09:07:36.027Z,77.10
2018-09-10T09:10:08.324Z,76.40
2018-09-10T09:12:40.910Z,76.70
2018-09-10T09:15:13.302Z,76.60
2018-09-10T09:17:45.303Z,76.70
2018-09-10T09:20:19.232Z,75.60
2018-09-10T09:22:51.941Z,76.40
2018-09-10T09:25:24.688Z,77.00
2018-09-10T09:27:57.176Z,76.10
2018-09-10T09:30:29.984Z,76.40
2018-09-10T09:33:01.614Z,76.90
2018-09-10T09:35:38.601Z,76.80
2018-09-10T09:38:15.447Z,76.50
2018-09-10T09:40:52.914Z,76.50
2018-09-10T09:43:29.459Z,76.10
2018-09-10T09:46:06.896Z,75.90
2018-09-10T09:48:39.351Z,77.20
2018-09-10T09:51:11.199Z,76.00
2018-09-10T09:53:43.039Z,76.40
2018-09-10T09:56:14.669Z,76.50
2018-09-10T09:58:46.393Z,76.30
2018-09-10T10:01:22.551Z,77.00
2018-09-10T10:03:57.000Z,76.90
2018-09-10T10:06:29.922Z,77.10
2018-09-10T10:09:01.504Z,76.70
2018-09-10T10:11:34.293Z,76.50
2018-09-10T10:14:06.590Z,74.50
2018-09-10T10:16:39.108Z,74.50
2018-09-10T10:19:10.752Z,75.00
2018-09-10T10:21:42.319Z,75.30
2018-09-10T10:24:14.055Z,74.40
2018-09-10T10:26:46.099Z,73.40
2018-09-10T10:29:18.080Z,74.20
2018-09-10T10:31:49.713Z,74.30
2018-09-10T10:34:21.853Z,74.60
2018-09-10T10:36:54.301Z,75.50
2018-09-10T10:39:26.513Z,75.50
2018-09-10T10:41:58.635Z,74.30
2018-09-10T10:44:30.675Z,73.80
2018-09-10T10:47:02.759Z,72.70
2018-09-10T10:49:34.466Z,71.40
2018-09-10T10:52:06.116Z,71.30
2018-09-10T10:54:39.312Z,71.10
2018-09-10T10:57:12.576Z,70.10
2018-09-10T10:59:45.107Z,69.40
2018-09-10T11:02:17.106Z,69.10
2018-09-10T11:04:48.794Z,68.50
2018-09-10T11:07:21.052Z,67.20
2018-09-10T11:09:52.836Z,66.90
2018-09-10T11:12:24.786Z,66.60
2018-09-10T11:14:56.407Z,64.80
2018-09-10T11:17:28.246Z,64.40
2018-09-10T11:20:00.191Z,63.80
2018-09-10T11:22:31.759Z,62.80
2018-09-10T11:25:03.454Z,62.70
2018-09-10T11:27:35.872Z,63.90
2018-09-10T11:30:08.650Z,60.70
2018-09-10T11:32:41.332Z,61.60
2018-09-10T11:35:14.823Z,62.40
2018-09-10T11:37:46.415Z,62.20
2018-09-10T11:40:18.575Z,61.80
2018-09-10T11:42:50.127Z,60.80
2018-09-10T11:45:21.692Z,61.10
2018-09-10T11:47:53.746Z,60.40
2018-09-10T11:50:25.306Z,60.60
2018-09-10T11:52:57.256Z,62.10
2018-09-10T11:55:29.805Z,58.70
2018-09-10T11:58:02.067Z,58.20
2018-09-10T12:00:34.458Z,58.00
2018-09-10T12:03:06.002Z,57.40
2018-09-10T12:05:37.543Z,57.70
2018-09-10T12:08:09.487Z,57.60
2018-09-10T12:10:40.987Z,56.30
2018-09-10T12:13:12.948Z,55.90
2018-09-10T12:15:44.652Z,55.80
2018-09-10T12:18:16.231Z,56.20
2018-09-10T12:20:48.231Z,55.30
2018-09-10T12:23:19.780Z,55.30
2018-09-10T12:25:51.982Z,55.20
2018-09-10T12:28:24.778Z,55.20
2018-09-10T12:30:56.254Z,55.40
2018-09-10T12:33:28.538Z,54.50
2018-09-10T12:36:00.388Z,55.50
2018-09-10T12:38:32.934Z,55.80
2018-09-10T12:41:04.937Z,56.20
2018-09-10T12:43:37.559Z,55.80
2018-09-10T12:46:09.187Z,55.20
2018-09-10T12:48:41.198Z,55.70
2018-09-10T12:51:12.810Z,55.70
2018-09-10T12:53:45.126Z,56.10
2018-09-10T12:56:17.615Z,56.10
2018-09-10T12:58:51.180Z,55.90
2018-09-10T13:01:24.367Z,56.70
2018-09-10T13:03:56.692Z,56.60
2018-09-10T13:06:28.355Z,57.00
2018-09-10T13:09:00.011Z,57.40
2018-09-10T13:11:31.819Z,57.60
2018-09-10T13:14:03.836Z,57.70
2018-09-10T13:16:35.568Z,58.30
2018-09-10T13:19:07.943Z,58.50
2018-09-10T13:21:39.879Z,58.70
2018-09-10T13:24:12.468Z,58.50
2018-09-10T13:26:44.712Z,58.50
2018-09-10T13:29:16.510Z,58.20
2018-09-10T13:31:48.510Z,57.70
2018-09-10T13:34:20.167Z,57.10
2018-09-10T13:36:51.915Z,56.50
2018-09-10T13:39:23.948Z,57.90
2018-09-10T13:41:56.666Z,57.10
2018-09-10T13:44:29.018Z,56.00
2018-09-10T13:47:00.634Z,55.90
2018-09-10T13:49:32.375Z,55.60
2018-09-10T13:52:04.406Z,55.60
2018-09-10T13:54:36.370Z,53.70
2018-09-10T13:57:07.926Z,52.60
2018-09-10T13:59:39.633Z,53.10
2018-09-10T14:02:11.248Z,53.30
2018-09-10T14:04:42.983Z,54.00
2018-09-10T14:07:15.015Z,54.80
2018-09-10T14:09:47.381Z,55.20
2018-09-10T14:12:19.547Z,55.80
2018-09-10T14:14:52.234Z,56.00
2018-09-10T14:17:23.885Z,55.00
2018-09-10T14:19:56.503Z,55.10
2018-09-10T14:22:28.923Z,55.40
2018-09-10T14:25:00.607Z,56.00
2018-09-10T14:27:33.923Z,56.20
2018-09-10T14:30:05.674Z,55.70
2018-09-10T14:32:37.333Z,55.80
2018-09-10T14:35:25.434Z,55.70
2018-09-10T14:38:04.259Z,55.60
2018-09-10T14:40:39.213Z,56.00
2018-09-10T14:43:12.054Z,56.70
2018-09-10T14:45:43.779Z,56.80
2018-09-10T14:48:15.683Z,57.00
2018-09-10T14:50:47.554Z,57.20
2018-09-10T14:53:19.034Z,57.40
2018-09-10T14:55:51.302Z,57.80
2018-09-10T14:58:22.771Z,58.00
2018-09-10T15:00:54.641Z,58.20
2018-09-10T15:03:26.331Z,58.50
2018-09-10T15:05:58.122Z,58.30
2018-09-10T15:08:29.949Z,58.60
2018-09-10T15:11:01.706Z,59.00
2018-09-10T15:13:33.593Z,59.30
2018-09-10T15:16:05.422Z,59.40
2018-09-10T15:18:37.876Z,59.60
2018-09-10T15:21:09.930Z,59.80
2018-09-10T15:23:41.331Z,60.30
2018-09-10T15:26:13.667Z,60.40
2018-09-10T15:28:45.173Z,61.10
2018-09-10T15:31:16.656Z,61.20
2018-09-10T15:33:48.060Z,61.10
2018-09-10T15:36:20.242Z,61.50
2018-09-10T15:38:53.043Z,61.10
2018-09-10T15:41:26.298Z,60.70
2018-09-10T15:43:59.162Z,60.80
2018-09-10T15:46:32.363Z,60.50
2018-09-10T15:49:05.343Z,60.80
2018-09-10T15:51:38.189Z,60.60
2018-09-10T15:54:09.591Z,60.70
2018-09-10T15:56:42.647Z,61.30
2018-09-10T15:59:14.286Z,61.20
2018-09-10T16:01:47.899Z,61.20
2018-09-10T16:04:21.905Z,61.90
2018-09-10T16:06:55.465Z,61.50
2018-09-10T16:09:28.447Z,61.60
2018-09-10T16:12:01.460Z,61.80
2018-09-10T16:14:34.273Z,61.90
2018-09-10T16:17:08.637Z,62.20
2018-09-10T16:19:41.677Z,62.00
2018-09-10T16:22:15.132Z,62.10
2018-09-10T16:24:49.726Z,62.30
2018-09-10T16:27:24.058Z,61.70
2018-09-10T16:29:57.666Z,61.80
2018-09-10T16:32:31.523Z,61.50
2018-09-10T16:35:04.638Z,61.90
2018-09-10T16:37:37.729Z,62.00
2018-09-10T16:40:10.663Z,61.90
2018-09-10T16:42:43.533Z,61.80
2018-09-10T16:45:17.553Z,62.70
2018-09-10T16:47:50.864Z,61.70
2018-09-10T16:50:23.829Z,61.70
2018-09-10T16:52:57.646Z,61.80
2018-09-10T16:55:30.712Z,61.50
2018-09-10T16:58:04.221Z,61.90
2018-09-10T17:00:37.609Z,62.00
2018-09-10T17:03:11.125Z,62.30
2018-09-10T17:05:44.571Z,62.50
2018-09-10T17:08:17.759Z,63.30
2018-09-10T17:10:50.654Z,62.50
2018-09-10T17:13:23.641Z,62.80
2018-09-10T17:15:57.069Z,62.90
2018-09-10T17:18:30.428Z,62.90
2018-09-10T17:21:03.541Z,63.10
2018-09-10T17:23:38.615Z,63.40
2018-09-10T17:26:10.614Z,64.40
2018-09-10T17:28:42.652Z,65.40
2018-09-10T17:31:14.832Z,67.10
2018-09-10T17:33:46.339Z,68.40
2018-09-10T17:36:18.593Z,70.10
2018-09-10T17:38:50.565Z,70.00
2018-09-10T17:41:23.289Z,69.90
2018-09-10T17:43:55.178Z,70.30
2018-09-10T17:46:27.425Z,70.70
2018-09-10T17:48:58.938Z,71.20
2018-09-10T17:51:30.871Z,71.20
2018-09-10T17:54:02.332Z,72.10
2018-09-10T17:56:34.262Z,71.70
2018-09-10T17:59:06.636Z,71.60
2018-09-10T18:01:38.608Z,71.80
2018-09-10T18:04:11.062Z,71.90
2018-09-10T18:06:42.576Z,71.90
2018-09-10T18:09:14.434Z,72.00
2018-09-10T18:11:46.389Z,72.00
2018-09-10T18:14:17.955Z,72.40
2018-09-10T18:16:49.920Z,72.50
2018-09-10T18:19:23.122Z,72.90
2018-09-10T18:21:54.573Z,73.10
2018-09-10T18:24:27.667Z,73.40
2018-09-10T18:26:59.610Z,73.60
2018-09-10T18:29:31.466Z,74.10
2018-09-10T18:32:02.952Z,74.50
2018-09-10T18:34:35.320Z,74.80
2018-09-10T18:37:06.818Z,74.90
2018-09-10T18:39:38.747Z,75.10
2018-09-10T18:42:10.551Z,75.50
2018-09-10T18:44:43.952Z,75.60
2018-09-10T18:47:16.978Z,75.90
2018-09-10T18:49:50.430Z,76.30
2018-09-10T18:52:23.359Z,76.70
2018-09-10T18:54:56.337Z,76.80
2018-09-10T18:57:29.431Z,77.00
2018-09-10T19:00:03.314Z,77.90
2018-09-10T19:02:38.584Z,77.60
2018-09-10T19:05:11.503Z,77.70
2018-09-10T19:07:44.449Z,77.90
2018-09-10T19:10:17.326Z,78.10
2018-09-10T19:12:50.610Z,78.40
2018-09-10T19:15:24.125Z,78.70
2018-09-10T19:17:56.972Z,79.00
2018-09-10T19:20:29.964Z,79.60
2018-09-10T19:23:03.328Z,79.80
2018-09-10T19:25:58.010Z,80.00
2018-09-10T19:28:30.296Z,80.20
2018-09-10T19:31:15.343Z,80.40
2018-09-10T19:33:53.825Z,81.70
2018-09-10T19:36:39.480Z,81.10
2018-09-10T19:39:16.127Z,81.60
2018-09-10T19:41:50.042Z,81.80
2018-09-10T19:44:21.994Z,82.00
2018-09-10T19:46:53.944Z,82.20
2018-09-10T19:49:28.267Z,82.00
2018-09-10T19:52:01.959Z,82.30
2018-09-10T19:54:35.094Z,83.30
2018-09-10T19:57:08.979Z,82.90
2018-09-10T19:59:41.243Z,82.90
2018-09-10T20:02:18.002Z,83.20
2018-09-10T20:04:50.187Z,83.50
2018-09-10T20:07:23.328Z,83.70
2018-09-10T20:09:55.800Z,84.00
2018-09-10T20:12:28.700Z,83.90
2018-09-10T20:15:03.696Z,84.30
2018-09-10T20:17:37.949Z,84.70
2018-09-10T20:20:11.045Z,84.40
2018-09-10T20:22:51.069Z,84.60
2018-09-10T20:25:23.971Z,84.70
2018-09-10T20:27:56.689Z,84.80
2018-09-10T20:30:30.087Z,84.50
2018-09-10T20:33:03.047Z,83.80
2018-09-10T20:35:36.530Z,83.60
2018-09-10T20:38:12.227Z,83.00
2018-09-10T20:40:46.173Z,82.30
2018-09-10T20:43:19.391Z,81.60
2018-09-10T20:45:52.483Z,80.80
2018-09-10T20:48:27.428Z,80.10
2018-09-10T20:51:01.535Z,81.00
2018-09-10T20:53:34.839Z,78.80
2018-09-10T20:56:07.924Z,78.50
2018-09-10T20:58:40.912Z,78.50
2018-09-10T21:01:31.654Z,77.90
2018-09-10T21:06:52.147Z,77.20
2018-09-10T21:09:27.376Z,77.10
2018-09-10T21:12:00.463Z,76.40
2018-09-10T21:14:33.502Z,76.90
2018-09-10T21:17:06.516Z,76.20
2018-09-10T21:19:39.559Z,75.80
2018-09-10T21:22:12.865Z,75.80
2018-09-10T21:24:45.776Z,75.00
2018-09-10T21:27:19.379Z,75.10
2018-09-10T21:29:52.204Z,74.20
2018-09-10T21:32:26.044Z,73.90
2018-09-10T21:34:59.273Z,73.80
2018-09-10T21:37:32.330Z,74.50
2018-09-10T21:40:05.372Z,73.80
2018-09-10T21:42:38.846Z,73.70
2018-09-10T21:45:11.806Z,74.40
2018-09-10T21:47:45.510Z,73.60
2018-09-10T21:50:18.482Z,73.30
2018-09-10T21:52:52.065Z,73.40
2018-09-10T21:55:25.001Z,73.70
2018-09-10T21:57:57.989Z,73.80
2018-09-10T22:00:31.455Z,73.90
2018-09-10T22:03:04.474Z,73.90
2018-09-10T22:05:37.573Z,73.60
2018-09-10T22:08:11.174Z,73.70
2018-09-10T22:10:44.108Z,74.10
2018-09-10T22:13:17.174Z,74.30
2018-09-10T22:15:50.212Z,74.70
2018-09-10T22:18:23.294Z,74.40
2018-09-10T22:20:56.231Z,74.90
2018-09-10T22:23:29.192Z,75.00
2018-09-10T22:26:02.652Z,75.10
2018-09-10T22:28:35.761Z,75.10
2018-09-10T22:31:09.156Z,75.20
2018-09-10T22:33:42.126Z,75.00
2018-09-10T22:36:15.089Z,75.60
2018-09-10T22:38:48.731Z,76.00
2018-09-10T22:41:21.731Z,76.00
2018-09-10T22:43:54.834Z,76.20
2018-09-10T22:46:27.776Z,76.40
2018-09-10T22:49:00.705Z,76.70
2018-09-10T22:51:33.579Z,76.80
2018-09-10T22:54:06.539Z,77.00
2018-09-10T22:56:39.788Z,77.20
2018-09-10T22:59:12.712Z,77.30
2018-09-10T23:01:45.840Z,77.50
2018-09-10T23:04:18.703Z,77.60
2018-09-10T23:06:52.781Z,77.80
2018-09-10T23:09:25.621Z,77.90
2018-09-10T23:11:59.275Z,78.00
2018-09-10T23:14:32.469Z,78.00
2018-09-10T23:17:05.699Z,78.10
2018-09-10T23:19:39.106Z,78.30
2018-09-10T23:22:12.040Z,79.20
2018-09-10T23:24:45.470Z,78.60
2018-09-10T23:27:18.357Z,78.60
2018-09-10T23:29:51.522Z,78.70
2018-09-10T23:32:24.957Z,78.80
2018-09-10T23:34:57.900Z,78.90
2018-09-10T23:37:30.802Z,79.10
2018-09-10T23:40:03.730Z,79.20
2018-09-10T23:42:36.892Z,79.30
2018-09-10T23:45:09.869Z,79.40
2018-09-10T23:47:43.552Z,79.70
2018-09-10T23:50:17.531Z,79.70
2018-09-10T23:52:50.338Z,79.50
2018-09-10T23:55:31.024Z,79.90
2018-09-10T23:58:03.837Z,80.10
